createdAt,value
2016-06-06T08:40:12.167Z,43328
2016-06-06T08:41:11.999Z,44416
2016-06-06T08:42:12.158Z,43776
2016-06-06T08:43:12.176Z,44160
2016-06-06T08:44:12.178Z,43936
2016-06-06T08:45:12.088Z,42368
2016-06-06T08:46:12.215Z,42784
2016-06-06T08:47:12.218Z,41408
2016-06-06T08:48:12.221Z,39232
2016-06-06T08:49:12.083Z,26048
2016-06-06T08:50:12.257Z,13276
2016-06-06T08:51:12.260Z,8928
2016-06-06T08:52:12.279Z,8716
2016-06-06T08:53:12.140Z,8588
2016-06-06T08:54:12.299Z,8532
2016-06-06T08:55:12.302Z,8416
2016-06-06T08:56:12.335Z,8372
2016-06-06T08:57:12.323Z,8368
2016-06-06T08:58:12.340Z,8152
2016-06-06T08:59:13.657Z,8100
2016-06-06T09:00:12.315Z,8076
2016-06-06T09:01:12.365Z,8132
2016-06-06T09:02:12.384Z,8324
2016-06-06T09:03:12.386Z,8292
2016-06-06T09:04:12.404Z,8132
2016-06-06T09:05:12.423Z,7980
2016-06-06T09:06:12.425Z,7652
2016-06-06T09:07:12.428Z,7464
2016-06-06T09:08:12.446Z,7360
2016-06-06T09:09:12.450Z,7364
2016-06-06T09:10:12.467Z,7360
2016-06-06T09:11:12.470Z,7328
2016-06-06T09:12:12.489Z,7216
2016-06-06T09:13:12.491Z,7196
2016-06-06T09:14:12.525Z,7152
2016-06-06T09:15:12.574Z,7404
2016-06-06T09:16:12.514Z,7948
2016-06-06T09:17:12.533Z,8132
2016-06-06T09:18:12.552Z,8044
2016-06-06T09:19:12.554Z,8040
2016-06-06T09:20:12.400Z,8528
2016-06-06T09:21:12.560Z,8556
2016-06-06T09:22:12.437Z,8080
2016-06-06T09:23:12.580Z,8064
2016-06-06T09:24:12.599Z,7736
2016-06-06T09:25:12.585Z,7400
2016-06-06T09:26:12.604Z,7392
2016-06-06T09:27:12.607Z,7264
2016-06-06T09:28:12.626Z,7576
2016-06-06T09:29:13.299Z,7612
2016-06-06T09:30:12.740Z,7500
2016-06-06T09:31:12.336Z,7544
2016-06-06T09:32:12.651Z,8112
2016-06-06T09:33:12.654Z,8996
2016-06-06T09:34:12.688Z,9428
2016-06-06T09:35:12.691Z,9460
2016-06-06T09:36:12.709Z,9556
2016-06-06T09:37:12.821Z,8480
2016-06-06T09:38:12.698Z,8332
2016-06-06T09:39:12.545Z,8364
2016-06-06T09:40:12.736Z,7868
2016-06-06T09:41:12.723Z,7780
2016-06-06T09:42:12.725Z,8184
2016-06-06T09:43:12.775Z,8496
2016-06-06T09:44:13.824Z,8600
2016-06-06T09:45:12.765Z,9444
2016-06-06T09:46:12.752Z,10420
2016-06-06T09:47:12.786Z,10752
2016-06-06T09:48:12.788Z,10576
2016-06-06T09:49:12.775Z,10472
2016-06-06T09:50:12.777Z,9472
2016-06-06T09:51:12.812Z,8668
2016-06-06T09:52:12.799Z,8964
2016-06-06T09:53:12.802Z,8632
2016-06-06T09:54:12.961Z,8572
2016-06-06T09:55:12.807Z,8424
2016-06-06T09:56:12.826Z,8268
2016-06-06T09:57:12.829Z,8880
2016-06-06T09:58:12.831Z,9224
2016-06-06T09:59:12.849Z,8436
2016-06-06T10:00:12.883Z,8400
2016-06-06T10:01:12.855Z,8480
2016-06-06T10:02:12.857Z,8124
2016-06-06T10:03:12.876Z,6572
2016-06-06T10:04:12.878Z,6516
2016-06-06T10:05:12.881Z,7276
2016-06-06T10:06:12.899Z,8100
2016-06-06T10:07:12.902Z,9380
2016-06-06T10:08:12.904Z,9364
2016-06-06T10:09:12.907Z,9124
2016-06-06T10:10:12.769Z,7848
2016-06-06T10:11:12.773Z,8180
2016-06-06T10:12:13.072Z,7936
2016-06-06T10:13:12.933Z,7852
2016-06-06T10:14:13.187Z,6684
2016-06-06T10:15:12.939Z,7004
2016-06-06T10:16:12.942Z,6836
2016-06-06T10:17:12.960Z,7184
2016-06-06T10:18:12.963Z,7672
2016-06-06T10:19:12.966Z,7636
2016-06-06T10:20:12.969Z,7316
2016-06-06T10:21:12.986Z,8560
2016-06-06T10:22:12.989Z,8424
2016-06-06T10:23:13.008Z,8472
2016-06-06T10:24:12.994Z,8428
2016-06-06T10:25:13.029Z,9004
2016-06-06T10:26:12.860Z,7544
2016-06-06T10:27:13.018Z,6172
2016-06-06T10:28:13.020Z,7016
2016-06-06T10:29:13.040Z,8944
2016-06-06T10:30:13.588Z,8988
2016-06-06T10:31:13.045Z,7968
2016-06-06T10:32:13.047Z,8000
2016-06-06T10:33:13.065Z,7748
2016-06-06T10:34:13.068Z,7044
2016-06-06T10:35:13.071Z,6580
2016-06-06T10:36:13.089Z,6800
2016-06-06T10:37:13.076Z,5976
2016-06-06T10:38:13.094Z,5320
2016-06-06T10:39:13.082Z,4880
2016-06-06T10:40:13.084Z,5076
2016-06-06T10:41:13.103Z,4824
2016-06-06T10:42:13.105Z,4392
2016-06-06T10:43:13.108Z,4068
2016-06-06T10:44:13.876Z,5056
2016-06-06T10:45:13.145Z,5356
2016-06-06T10:46:13.131Z,5620
2016-06-06T10:47:13.134Z,5504
2016-06-06T10:48:13.153Z,5672
2016-06-06T10:49:13.155Z,5712
2016-06-06T10:50:13.158Z,5924
2016-06-06T10:51:13.161Z,5484
2016-06-06T10:52:13.180Z,6172
2016-06-06T10:53:13.197Z,6676
2016-06-06T10:54:13.028Z,7212
2016-06-06T10:55:13.172Z,6520
2016-06-06T10:56:13.190Z,6720
2016-06-06T10:57:13.208Z,6824
2016-06-06T10:58:13.195Z,6516
2016-06-06T10:59:13.604Z,5532
2016-06-06T11:00:14.404Z,4692
2016-06-06T11:01:13.219Z,5156
2016-06-06T11:02:13.221Z,4472
2016-06-06T11:03:13.240Z,4592
2016-06-06T11:04:13.243Z,4996
2016-06-06T11:05:13.246Z,5380
2016-06-06T11:06:13.249Z,4432
2016-06-06T11:07:13.095Z,4588
2016-06-06T11:08:13.253Z,5288
2016-06-06T11:09:13.256Z,5904
2016-06-06T11:10:13.259Z,5756
2016-06-06T11:11:13.262Z,6488
2016-06-06T11:12:13.280Z,7340
2016-06-06T11:13:13.283Z,7424
2016-06-06T11:14:13.645Z,7892
2016-06-06T11:15:14.319Z,8112
2016-06-06T11:16:13.322Z,6756
2016-06-06T11:17:13.308Z,7008
2016-06-06T11:18:13.312Z,6252
2016-06-06T11:19:13.252Z,7020
2016-06-06T11:20:13.223Z,7120
2016-06-06T11:21:13.242Z,6592
2016-06-06T11:22:13.244Z,6504
2016-06-06T11:23:13.247Z,5808
2016-06-06T11:24:13.250Z,6060
2016-06-06T11:25:13.111Z,6076
2016-06-06T11:26:13.271Z,5900
2016-06-06T11:27:13.274Z,5764
2016-06-06T11:28:13.276Z,5884
2016-06-06T11:29:13.154Z,5056
2016-06-06T11:30:13.297Z,4332
2016-06-06T11:31:13.284Z,3552
2016-06-06T11:32:13.318Z,4156
2016-06-06T11:33:13.149Z,4160
2016-06-06T11:34:13.307Z,3732
2016-06-06T11:35:13.326Z,4644
2016-06-06T11:36:13.345Z,5072
2016-06-06T11:37:13.332Z,5520
2016-06-06T11:38:13.334Z,5820
2016-06-06T11:39:13.259Z,6008
2016-06-06T11:40:13.261Z,5948
2016-06-06T11:41:13.264Z,5828
2016-06-06T11:42:13.298Z,5188
2016-06-06T11:43:13.285Z,4360
2016-06-06T11:44:14.006Z,4260
2016-06-06T11:45:14.384Z,4196
2016-06-06T11:46:13.293Z,3952
2016-06-06T11:47:13.295Z,3604
2016-06-06T11:48:13.142Z,3548
2016-06-06T11:49:13.145Z,3560
2016-06-06T11:50:13.304Z,3584
2016-06-06T11:51:13.306Z,3640
2016-06-06T11:52:13.325Z,3716
2016-06-06T11:53:13.172Z,3756
2016-06-06T11:54:13.330Z,3840
2016-06-06T11:55:13.333Z,3936
2016-06-06T11:56:13.336Z,4008
2016-06-06T11:57:13.338Z,4096
2016-06-06T11:58:13.200Z,4100
2016-06-06T11:59:13.406Z,3940
2016-06-06T12:00:13.785Z,3832
2016-06-06T12:01:13.208Z,3796
2016-06-06T12:02:13.367Z,3912
2016-06-06T12:03:13.371Z,4060
2016-06-06T12:04:13.389Z,4248
2016-06-06T12:05:13.407Z,4160
2016-06-06T12:06:13.237Z,3904
2016-06-06T12:07:13.413Z,3760
2016-06-06T12:08:13.399Z,3748
2016-06-06T12:10:50.437Z,3620
2016-06-06T12:11:02.890Z,3608
2016-06-06T12:12:02.970Z,3372
2016-06-06T12:13:03.254Z,3292
2016-06-06T12:14:04.179Z,3332
2016-06-06T12:15:03.212Z,3336
2016-06-06T12:16:03.075Z,3320
2016-06-06T12:17:03.093Z,3316
2016-06-06T12:18:03.080Z,3392
2016-06-06T12:19:03.083Z,3568
2016-06-06T12:20:02.929Z,3824
2016-06-06T12:21:03.103Z,4104
2016-06-06T12:22:03.091Z,4244
2016-06-06T12:23:03.109Z,4160
2016-06-06T12:24:03.127Z,3896
2016-06-06T12:25:03.114Z,3728
2016-06-06T12:26:03.116Z,3844
2016-06-06T12:27:03.119Z,4008
2016-06-06T12:28:03.122Z,3884
2016-06-06T12:29:03.546Z,3728
2016-06-06T12:30:03.143Z,3568
2016-06-06T12:31:03.146Z,3492
2016-06-06T12:32:02.993Z,3400
2016-06-06T12:33:03.152Z,3392
2016-06-06T12:34:03.154Z,3416
2016-06-06T12:35:03.156Z,3432
2016-06-06T12:36:03.160Z,3324
2016-06-06T12:37:03.162Z,3212
2016-06-06T12:38:03.196Z,3128
2016-06-06T12:39:03.182Z,3104
2016-06-06T12:40:03.185Z,3084
2016-06-06T12:41:03.235Z,3088
2016-06-06T12:42:03.035Z,3052
2016-06-06T12:43:03.193Z,2736
2016-06-06T12:44:03.213Z,2912
2016-06-06T12:45:03.215Z,2876
2016-06-06T12:46:03.201Z,3436
2016-06-06T12:47:03.220Z,3476
2016-06-06T12:48:03.223Z,3520
2016-06-06T12:49:03.085Z,3488
2016-06-06T12:50:03.228Z,3128
2016-06-06T12:51:03.231Z,3216
2016-06-06T12:52:03.234Z,3168
2016-06-06T12:53:03.252Z,3176
2016-06-06T12:54:03.239Z,3208
2016-06-06T12:55:03.101Z,3268
2016-06-06T12:56:03.261Z,3320
2016-06-06T12:57:03.278Z,3336
2016-06-06T12:58:03.265Z,3344
2016-06-06T12:59:03.283Z,3372
2016-06-06T13:00:03.693Z,3184
2016-06-06T13:01:03.274Z,2976
2016-06-06T13:02:03.277Z,2904
2016-06-06T13:03:03.294Z,2908
2016-06-06T13:04:03.313Z,2896
2016-06-06T13:05:03.315Z,2900
2016-06-06T13:06:03.303Z,2904
2016-06-06T13:07:03.321Z,2932
2016-06-06T13:08:03.307Z,2980
2016-06-06T13:09:03.155Z,3004
2016-06-06T13:10:03.313Z,3000
2016-06-06T13:11:03.316Z,2868
2016-06-06T13:12:03.318Z,2768
2016-06-06T13:13:03.337Z,2724
2016-06-06T13:14:03.715Z,2712
2016-06-06T13:15:03.202Z,2716
2016-06-06T13:16:03.345Z,2716
2016-06-06T13:17:03.364Z,2696
2016-06-06T13:18:03.350Z,2756
2016-06-06T13:19:03.353Z,2916
2016-06-06T13:20:03.215Z,3024
2016-06-06T13:21:03.359Z,3056
2016-06-06T13:22:03.377Z,3096
2016-06-06T13:23:03.380Z,3028
2016-06-06T13:24:03.398Z,2904
2016-06-06T13:25:03.385Z,2880
2016-06-06T13:26:03.231Z,2892
2016-06-06T13:27:03.391Z,2916
2016-06-06T13:28:03.408Z,2928
2016-06-06T13:29:04.083Z,2980
2016-06-06T13:30:03.414Z,3080
2016-06-06T13:31:03.416Z,3220
2016-06-06T13:32:03.404Z,3324
2016-06-06T13:33:03.422Z,3476
2016-06-06T13:34:03.424Z,3476
2016-06-06T13:35:03.427Z,3528
2016-06-06T13:36:03.430Z,3620
2016-06-06T13:37:03.433Z,3788
2016-06-06T13:38:03.435Z,3916
2016-06-06T13:39:03.438Z,3772
2016-06-06T13:40:03.441Z,3592
2016-06-06T13:41:03.443Z,3676
2016-06-06T13:42:03.446Z,3568
2016-06-06T13:43:03.464Z,3468
2016-06-06T13:44:04.077Z,3492
2016-06-06T13:45:03.471Z,3532
2016-06-06T13:46:03.473Z,3516
2016-06-06T13:47:03.350Z,3392
2016-06-06T13:48:03.479Z,3220
2016-06-06T13:49:03.496Z,3068
2016-06-06T13:50:03.483Z,2924
2016-06-06T13:51:03.486Z,2816
2016-06-06T13:52:03.504Z,2752
2016-06-06T13:53:03.492Z,2724
2016-06-06T13:54:03.509Z,2720
2016-06-06T13:55:03.512Z,2728
2016-06-06T13:56:03.531Z,2764
2016-06-06T13:57:03.517Z,2788
2016-06-06T13:58:03.520Z,2760
2016-06-06T13:59:03.397Z,2700
2016-06-06T14:00:03.541Z,2660
2016-06-06T14:01:03.560Z,2660
2016-06-06T14:02:03.547Z,2324
2016-06-06T14:03:03.534Z,2380
2016-06-06T14:04:03.552Z,2244
2016-06-06T14:05:03.555Z,2520
2016-06-06T14:06:03.558Z,2528
2016-06-06T14:07:03.561Z,2548
2016-06-06T14:08:03.579Z,2580
2016-06-06T14:09:03.566Z,2500
2016-06-06T14:10:03.412Z,2372
2016-06-06T14:11:03.571Z,2284
2016-06-06T14:12:03.574Z,2216
2016-06-06T14:13:03.749Z,2220
2016-06-06T14:14:04.501Z,2248
2016-06-06T14:15:03.316Z,2304
2016-06-06T14:16:03.444Z,2400
2016-06-06T14:17:03.619Z,2504
2016-06-06T14:18:03.606Z,2584
2016-06-06T14:19:03.623Z,2584
2016-06-06T14:20:03.611Z,2480
2016-06-06T14:21:03.614Z,2212
2016-06-06T14:22:03.631Z,2156
2016-06-06T14:23:03.634Z,2100
2016-06-06T14:24:03.340Z,2060
2016-06-06T14:25:03.484Z,2004
2016-06-06T14:26:03.643Z,1968
2016-06-06T14:27:03.677Z,1952
2016-06-06T14:28:03.647Z,1944
2016-06-06T14:29:03.651Z,1948
2016-06-06T14:30:03.513Z,1992
2016-06-06T14:31:03.655Z,2036
2016-06-06T14:32:03.503Z,2028
2016-06-06T14:33:03.661Z,2024
2016-06-06T14:34:03.680Z,1960
2016-06-06T14:35:03.682Z,1916
2016-06-06T14:36:03.685Z,1908
2016-06-06T14:37:03.688Z,2120
2016-06-06T14:38:03.691Z,2112
2016-06-06T14:39:03.693Z,1992
2016-06-06T14:40:03.697Z,2112
2016-06-06T14:41:03.699Z,2164
2016-06-06T14:42:03.717Z,1996
2016-06-06T14:43:03.704Z,1948
2016-06-06T14:44:04.019Z,2056
2016-06-06T14:45:03.788Z,2180
2016-06-06T14:46:03.728Z,2136
2016-06-06T14:47:03.731Z,2272
2016-06-06T14:48:03.576Z,2408
2016-06-06T14:49:03.737Z,2444
2016-06-06T14:50:03.739Z,2404
2016-06-06T14:51:03.741Z,2368
2016-06-06T14:52:03.603Z,2352
2016-06-06T14:53:03.747Z,2360
2016-06-06T14:54:03.749Z,2320
2016-06-06T14:55:03.767Z,2388
2016-06-06T14:56:03.770Z,2464
2016-06-06T14:57:03.773Z,2512
2016-06-06T14:58:03.760Z,2396
2016-06-06T14:59:03.779Z,2496
2016-06-06T15:00:04.359Z,2468
2016-06-06T15:01:03.784Z,2432
2016-06-06T15:02:03.817Z,2476
2016-06-06T15:03:03.789Z,2488
2016-06-06T15:04:03.792Z,2532
2016-06-06T15:05:03.654Z,2644
2016-06-06T15:06:03.797Z,2776
2016-06-06T15:07:03.816Z,2872
2016-06-06T15:08:03.802Z,2960
2016-06-06T15:09:03.806Z,3004
2016-06-06T15:10:03.824Z,2972
2016-06-06T15:11:03.810Z,2880
2016-06-06T15:12:03.829Z,2784
2016-06-06T15:13:03.832Z,2692
2016-06-06T15:14:03.834Z,2644
2016-06-06T15:15:04.696Z,2652
2016-06-06T15:16:03.840Z,2680
2016-06-06T15:17:03.842Z,2736
2016-06-06T15:18:03.845Z,2852
2016-06-06T15:19:03.848Z,3016
2016-06-06T15:20:03.851Z,3256
2016-06-06T15:21:03.854Z,3500
2016-06-06T15:22:03.856Z,3720
2016-06-06T15:23:03.859Z,3752
2016-06-06T15:24:03.862Z,3788
2016-06-06T15:25:03.865Z,3836
2016-06-06T15:26:03.882Z,3860
2016-06-06T15:27:03.884Z,3768
2016-06-06T15:28:03.887Z,3740
2016-06-06T15:29:03.890Z,3828
2016-06-06T15:30:04.800Z,3944
2016-06-06T15:31:04.506Z,4192
2016-06-06T15:32:03.898Z,4396
2016-06-06T15:33:03.901Z,4492
2016-06-06T15:34:03.903Z,4140
2016-06-06T15:35:03.907Z,3460
2016-06-06T15:36:03.769Z,3120
2016-06-06T15:37:03.912Z,2824
2016-06-06T15:38:03.914Z,2556
2016-06-06T15:39:03.917Z,2460
2016-06-06T15:40:03.936Z,2416
2016-06-06T15:41:03.938Z,2340
2016-06-06T15:42:03.941Z,2216
2016-06-06T15:43:03.943Z,2100
2016-06-06T15:44:03.946Z,2060
2016-06-06T15:45:04.012Z,2008
2016-06-06T15:46:03.952Z,1960
2016-06-06T15:47:03.971Z,1952
2016-06-06T15:48:03.801Z,1952
2016-06-06T15:49:03.960Z,1988
2016-06-06T15:50:03.963Z,2020
2016-06-06T15:51:03.982Z,2024
2016-06-06T15:52:03.984Z,2016
2016-06-06T15:53:03.971Z,2024
2016-06-06T15:54:03.989Z,1996
2016-06-06T15:55:04.007Z,1964
2016-06-06T15:56:03.995Z,1916
2016-06-06T15:57:03.840Z,1860
2016-06-06T15:58:04.000Z,1808
2016-06-06T15:59:03.862Z,1776
2016-06-06T16:00:04.834Z,1756
2016-06-06T16:01:04.008Z,1732
2016-06-06T16:02:03.870Z,1728
2016-06-06T16:03:04.014Z,1724
2016-06-06T16:04:04.031Z,1748
2016-06-06T16:05:04.019Z,1784
2016-06-06T16:06:04.022Z,1844
2016-06-06T16:07:04.071Z,1900
2016-06-06T16:08:04.042Z,1948
2016-06-06T16:09:04.045Z,1960
2016-06-06T16:10:04.048Z,1944
2016-06-06T16:11:04.050Z,1880
2016-06-06T16:12:04.053Z,1972
2016-06-06T16:13:04.228Z,1960
2016-06-06T16:14:04.059Z,1944
2016-06-06T16:15:04.436Z,1936
2016-06-06T16:16:04.064Z,1924
2016-06-06T16:17:03.910Z,1908
2016-06-06T16:18:03.929Z,1892
2016-06-06T16:19:04.088Z,1888
2016-06-06T16:20:04.091Z,1892
2016-06-06T16:21:03.984Z,1896
2016-06-06T16:22:04.096Z,1892
2016-06-06T16:23:04.099Z,1892
2016-06-06T16:24:04.101Z,1884
2016-06-06T16:25:04.104Z,1888
2016-06-06T16:26:04.107Z,1896
2016-06-06T16:27:04.109Z,1896
2016-06-06T16:28:04.112Z,1900
2016-06-06T16:29:04.115Z,1892
2016-06-06T16:30:04.336Z,1892
2016-06-06T16:31:04.120Z,1896
2016-06-06T16:32:04.123Z,1912
2016-06-06T16:33:04.141Z,1920
2016-06-06T16:34:04.159Z,1932
2016-06-06T16:35:04.147Z,1964
2016-06-06T16:36:04.150Z,2000
2016-06-06T16:37:04.136Z,2028
2016-06-06T16:38:04.139Z,2052
2016-06-06T16:39:04.142Z,2052
2016-06-06T16:40:04.160Z,2040
2016-06-06T16:41:03.991Z,2028
2016-06-06T16:42:04.166Z,2048
2016-06-06T16:43:04.173Z,2076
2016-06-06T16:44:04.181Z,2120
2016-06-06T16:45:04.656Z,2156
2016-06-06T16:46:04.196Z,2204
2016-06-06T16:47:04.204Z,2236
2016-06-06T16:48:04.224Z,2260
2016-06-06T16:49:03.916Z,2248
2016-06-06T16:50:04.216Z,2216
2016-06-06T16:51:04.221Z,2208
2016-06-06T16:52:04.225Z,2216
2016-06-06T16:53:04.088Z,2236
2016-06-06T16:54:04.247Z,2272
2016-06-06T16:55:04.236Z,2316
2016-06-06T16:56:04.239Z,2344
2016-06-06T16:57:04.102Z,2376
2016-06-06T16:58:04.261Z,2424
2016-06-06T16:59:04.263Z,2436
2016-06-06T17:00:05.439Z,2456
2016-06-06T17:01:04.286Z,2436
2016-06-06T17:02:04.273Z,2408
2016-06-06T17:03:04.276Z,2400
2016-06-06T17:04:04.278Z,2404
2016-06-06T17:05:04.281Z,2400
2016-06-06T17:06:04.283Z,2404
2016-06-06T17:07:04.287Z,2416
2016-06-06T17:08:04.289Z,2444
2016-06-06T17:09:04.292Z,2440
2016-06-06T17:10:04.311Z,2444
2016-06-06T17:11:04.157Z,2472
2016-06-06T17:12:04.316Z,2528
2016-06-06T17:13:04.303Z,2588
2016-06-06T17:14:04.305Z,2616
2016-06-06T17:15:05.246Z,2644
2016-06-06T17:16:04.327Z,2664
2016-06-06T17:17:04.313Z,2668
2016-06-06T17:18:04.316Z,2656
2016-06-06T17:19:04.350Z,2640
2016-06-06T17:20:04.337Z,2632
2016-06-06T17:21:04.340Z,2612
2016-06-06T17:22:04.343Z,2580
2016-06-06T17:23:04.346Z,2520
2016-06-06T17:24:04.348Z,2472
2016-06-06T17:25:04.351Z,2452
2016-06-06T17:26:04.353Z,2456
2016-06-06T17:27:04.356Z,2468
2016-06-06T17:28:04.374Z,2488
2016-06-06T17:29:04.361Z,2500
2016-06-06T17:30:04.365Z,2504
2016-06-06T17:31:04.382Z,2504
2016-06-06T17:32:04.384Z,2500
2016-06-06T17:33:04.388Z,2500
2016-06-06T17:34:04.375Z,2492
2016-06-06T17:35:04.221Z,2504
2016-06-06T17:36:04.380Z,2528
2016-06-06T17:37:04.383Z,2552
2016-06-06T17:38:04.400Z,2564
2016-06-06T17:39:04.404Z,2556
2016-06-06T17:40:04.406Z,2520
2016-06-06T17:41:04.408Z,2476
2016-06-06T17:42:04.412Z,2432
2016-06-06T17:43:04.430Z,2408
2016-06-06T17:44:04.261Z,2412
2016-06-06T17:45:04.654Z,2432
2016-06-06T17:46:04.423Z,2472
2016-06-06T17:47:04.425Z,2508
2016-06-06T17:48:04.427Z,2548
2016-06-06T17:49:04.447Z,2572
2016-06-06T17:50:04.277Z,2560
2016-06-06T17:51:04.451Z,2536
2016-06-06T17:52:04.454Z,2504
2016-06-06T17:53:04.441Z,2468
2016-06-06T17:54:04.444Z,2436
2016-06-06T17:55:04.462Z,2400
2016-06-06T17:56:04.465Z,2364
2016-06-06T17:57:04.468Z,2320
2016-06-06T17:58:04.470Z,2276
2016-06-06T17:59:04.473Z,2236
2016-06-06T18:00:04.820Z,2200
2016-06-06T18:01:04.495Z,2180
2016-06-06T18:02:04.481Z,2156
2016-06-06T18:03:04.484Z,2132
2016-06-06T18:04:04.487Z,2104
2016-06-06T18:05:04.489Z,2064
2016-06-06T18:06:04.336Z,2016
2016-06-06T18:07:04.495Z,1960
2016-06-06T18:08:04.497Z,1920
2016-06-06T18:09:04.500Z,1888
2016-06-06T18:10:04.519Z,1852
2016-06-06T18:11:04.505Z,1828
2016-06-06T18:12:04.524Z,1804
2016-06-06T18:13:04.777Z,1780
2016-06-06T18:14:04.530Z,1752
2016-06-06T18:15:04.657Z,1716
2016-06-06T18:16:04.535Z,1680
2016-06-06T18:17:04.397Z,1628
2016-06-06T18:18:04.555Z,1576
2016-06-06T18:19:04.527Z,1516
2016-06-06T18:20:04.546Z,1464
2016-06-06T18:21:04.549Z,1420
2016-06-06T18:22:04.551Z,1392
2016-06-06T18:23:04.554Z,1376
2016-06-06T18:24:04.556Z,1352
2016-06-06T18:25:04.560Z,1320
2016-06-06T18:26:04.561Z,1280
2016-06-06T18:27:04.564Z,1240
2016-06-06T18:28:04.567Z,1208
2016-06-06T18:29:04.570Z,1176
2016-06-06T18:30:04.603Z,1144
2016-06-06T18:31:04.435Z,1116
2016-06-06T18:32:04.578Z,1088
2016-06-06T18:33:04.439Z,1064
2016-06-06T18:34:04.598Z,1040
2016-06-06T18:35:04.601Z,1016
2016-06-06T18:36:04.448Z,976
2016-06-06T18:37:04.450Z,928
2016-06-06T18:38:04.453Z,880
2016-06-06T18:39:04.628Z,844
2016-06-06T18:40:04.599Z,820
2016-06-06T18:41:04.617Z,796
2016-06-06T18:42:04.620Z,776
2016-06-06T18:43:04.622Z,752
2016-06-06T18:44:04.626Z,724
2016-06-06T18:45:04.925Z,708
2016-06-06T18:46:04.631Z,676
2016-06-06T18:47:04.633Z,636
2016-06-06T18:48:04.636Z,596
2016-06-06T18:49:04.639Z,560
2016-06-06T18:50:04.641Z,528
2016-06-06T18:51:04.660Z,492
2016-06-06T18:52:04.647Z,460
2016-06-06T18:53:04.494Z,436
2016-06-06T18:54:04.496Z,412
2016-06-06T18:55:04.654Z,400
2016-06-06T18:56:04.658Z,392
2016-06-06T18:57:04.660Z,364
2016-06-06T18:58:04.663Z,344
2016-06-06T18:59:04.526Z,324
2016-06-06T19:00:04.903Z,312
2016-06-06T19:01:04.670Z,296
2016-06-06T19:02:04.673Z,280
2016-06-06T19:03:04.676Z,260
2016-06-06T19:04:04.679Z,240
2016-06-06T19:05:04.681Z,224
2016-06-06T19:06:04.684Z,212
2016-06-06T19:07:04.687Z,200
2016-06-06T19:08:04.706Z,192
2016-06-06T19:09:06.958Z,184
2016-06-06T19:10:04.711Z,168
2016-06-06T19:11:04.698Z,152
2016-06-06T19:12:04.701Z,132
2016-06-06T19:13:04.719Z,120
2016-06-06T19:14:04.706Z,100
2016-06-06T19:15:04.724Z,92
2016-06-06T19:16:04.728Z,84
2016-06-06T19:17:04.761Z,76
2016-06-06T19:18:04.733Z,72
2016-06-06T19:19:04.735Z,64
2016-06-06T19:20:04.738Z,56
2016-06-06T19:21:04.741Z,52
2016-06-06T19:22:04.744Z,44
2016-06-06T19:23:04.746Z,40
2016-06-06T19:24:04.733Z,32
2016-06-06T19:25:04.751Z,28
2016-06-06T19:26:04.754Z,24
2016-06-06T19:27:04.741Z,24
2016-06-06T19:28:04.603Z,20
2016-06-06T19:29:04.606Z,16
2016-06-06T19:30:04.609Z,16
2016-06-06T19:31:04.768Z,16
2016-06-06T19:32:04.754Z,12
2016-06-06T19:33:04.773Z,8
2016-06-06T19:34:04.776Z,8
2016-06-06T19:35:05.294Z,12
2016-06-06T19:36:04.797Z,8
2016-06-06T19:37:04.628Z,8
2016-06-06T19:38:04.771Z,8
2016-06-06T19:39:04.789Z,4
2016-06-06T19:40:04.792Z,4
2016-06-06T19:41:04.795Z,4
2016-06-06T19:42:04.813Z,4
2016-06-06T19:43:04.659Z,0
2016-06-06T19:44:04.803Z,4
2016-06-06T19:45:04.805Z,4
2016-06-06T19:46:04.808Z,4
2016-06-06T19:47:04.811Z,4
2016-06-06T19:48:04.797Z,0
2016-06-06T19:49:04.847Z,0
2016-06-06T19:50:04.818Z,0
2016-06-06T19:51:04.821Z,0
2016-06-06T19:52:04.824Z,0
2016-06-06T19:53:04.843Z,0
2016-06-06T19:54:04.673Z,0
2016-06-06T19:55:04.832Z,0
2016-06-06T19:56:04.835Z,0
2016-06-06T19:57:04.838Z,0
2016-06-06T19:58:04.840Z,0
2016-06-06T19:59:04.687Z,0
2016-06-06T20:00:04.845Z,0
2016-06-06T20:01:04.848Z,0
2016-06-06T20:02:04.835Z,0
2016-06-06T20:03:04.853Z,0
2016-06-06T20:04:04.856Z,0
2016-06-06T20:05:05.188Z,0
2016-06-06T20:06:04.923Z,0
2016-06-06T20:07:04.865Z,0
2016-06-06T20:08:04.867Z,0
2016-06-06T20:09:04.870Z,0
2016-06-06T20:10:04.872Z,0
2016-06-06T20:11:04.875Z,0
2016-06-06T20:12:04.878Z,0
2016-06-06T20:13:05.021Z,0
2016-06-06T20:14:04.570Z,0
2016-06-06T20:15:04.886Z,0
2016-06-06T20:16:04.732Z,0
2016-06-06T20:17:04.735Z,0
2016-06-06T20:18:04.894Z,0
2016-06-06T20:19:04.897Z,0
2016-06-06T20:20:05.086Z,0
2016-06-06T20:21:05.028Z,0
2016-06-06T20:22:04.905Z,0
2016-06-06T20:23:04.907Z,0
2016-06-06T20:24:04.910Z,0
2016-06-06T20:25:04.913Z,0
2016-06-06T20:26:04.915Z,0
2016-06-06T20:27:04.902Z,0
2016-06-06T20:28:04.905Z,0
2016-06-06T20:29:04.908Z,0
2016-06-06T20:30:04.910Z,0
2016-06-06T20:31:04.913Z,0
2016-06-06T20:32:04.916Z,0
2016-06-06T20:33:04.919Z,0
2016-06-06T20:34:04.938Z,0
2016-06-06T20:35:04.956Z,0
2016-06-06T20:36:05.239Z,0
2016-06-06T20:37:04.945Z,0
2016-06-06T20:38:04.932Z,0
2016-06-06T20:39:04.950Z,0
2016-06-06T20:40:04.953Z,0
2016-06-06T20:41:04.940Z,0
2016-06-06T20:42:04.943Z,0
2016-06-06T20:43:04.961Z,0
2016-06-06T20:44:04.948Z,0
2016-06-06T20:45:04.950Z,0
2016-06-06T20:46:04.953Z,0
2016-06-06T20:47:04.972Z,0
2016-06-06T20:48:04.959Z,0
2016-06-06T20:49:04.977Z,0
2016-06-06T20:50:05.480Z,0
2016-06-06T20:51:05.576Z,0
2016-06-06T20:52:04.969Z,0
2016-06-06T20:53:04.972Z,0
2016-06-06T20:54:04.975Z,0
2016-06-06T20:55:04.993Z,0
2016-06-06T20:56:04.996Z,0
2016-06-06T20:57:04.983Z,0
2016-06-06T20:58:04.986Z,0
2016-06-06T20:59:04.988Z,0
2016-06-06T21:00:04.991Z,0
2016-06-06T21:01:05.010Z,0
2016-06-06T21:02:04.997Z,0
2016-06-06T21:03:05.000Z,0
2016-06-06T21:04:05.017Z,0
2016-06-06T21:05:05.223Z,0
2016-06-06T21:06:05.008Z,0
2016-06-06T21:07:04.995Z,0
2016-06-06T21:08:04.997Z,0
2016-06-06T21:09:05.015Z,0
2016-06-06T21:10:04.862Z,0
2016-06-06T21:11:05.021Z,0
2016-06-06T21:12:05.023Z,0
2016-06-06T21:13:05.026Z,0
2016-06-06T21:14:05.029Z,0
2016-06-06T21:15:05.032Z,0
2016-06-06T21:16:05.034Z,0
2016-06-06T21:17:05.037Z,0
2016-06-06T21:18:04.867Z,0
2016-06-06T21:19:05.028Z,0
2016-06-06T21:20:05.247Z,0
2016-06-06T21:21:04.907Z,0
2016-06-06T21:22:05.035Z,0
2016-06-06T21:23:05.038Z,0
2016-06-06T21:24:05.040Z,0
2016-06-06T21:25:05.058Z,0
2016-06-06T21:26:05.046Z,0
2016-06-06T21:27:05.049Z,0
2016-06-06T21:28:05.051Z,0
2016-06-06T21:29:05.054Z,0
2016-06-06T21:30:05.057Z,0
2016-06-06T21:31:05.059Z,0
2016-06-06T21:32:04.905Z,0
2016-06-06T21:33:04.907Z,0
2016-06-06T21:34:05.067Z,0
2016-06-06T21:35:05.085Z,0
2016-06-06T21:36:05.104Z,0
2016-06-06T21:37:05.075Z,0
2016-06-06T21:38:05.078Z,0
2016-06-06T21:39:05.081Z,0
2016-06-06T21:40:05.084Z,0
2016-06-06T21:41:05.086Z,0
2016-06-06T21:42:05.089Z,0
2016-06-06T21:43:05.091Z,0
2016-06-06T21:44:05.094Z,0
2016-06-06T21:45:05.081Z,0
2016-06-06T21:46:05.099Z,0
2016-06-06T21:47:04.930Z,0
2016-06-06T21:48:05.089Z,0
2016-06-06T21:49:05.108Z,0
2016-06-06T21:50:05.125Z,0
2016-06-06T21:51:05.910Z,0
2016-06-06T21:52:05.116Z,0
2016-06-06T21:53:05.103Z,0
2016-06-06T21:54:05.105Z,0
2016-06-06T21:55:05.108Z,0
2016-06-06T21:56:04.954Z,0
2016-06-06T21:57:05.113Z,0
2016-06-06T21:58:05.116Z,0
2016-06-06T21:59:04.963Z,0
2016-06-06T22:00:05.121Z,0
2016-06-06T22:01:05.108Z,0
2016-06-06T22:02:05.127Z,0
2016-06-06T22:03:05.114Z,0
2016-06-06T22:04:05.132Z,0
2016-06-06T22:05:05.729Z,0
2016-06-06T22:06:05.325Z,0
2016-06-06T22:07:04.984Z,0
2016-06-06T22:08:05.143Z,0
2016-06-06T22:09:05.146Z,0
2016-06-06T22:10:05.132Z,0
2016-06-06T22:11:05.135Z,0
2016-06-06T22:12:05.138Z,0
2016-06-06T22:13:05.298Z,0
2016-06-06T22:14:05.143Z,0
2016-06-06T22:15:05.146Z,0
2016-06-06T22:16:05.149Z,0
2016-06-06T22:17:05.167Z,0
2016-06-06T22:18:05.341Z,0